East Norriton, Pennsylvania
Current Conditions -  °F | °C
As of 10:35 AM on Friday 28 Nov 2014 (Local Time) from KLOM Reporting Station
Broken Clouds Broken Clouds  
Wind Chill: 28°   Ceiling: 3800
Heat Index: 36°   Visibility: 10mi
Dew Point: 23°   Wind: 12mph
Humidity: 60%   Direction: 310°NW
Pressure: 30.23"   Gusts: 20mph
Location:  40.1497°N, 75.3819°W
Report Text: KLOM 281535Z AUTO 31010G17KT 10SM BKN038 BKN048 02/M05 A3023 RMK AO1
Loading
Personal Weather Stations






























Interactive Weather Map New forecast layout! Learn more

10-Day Weather Forecast

Advertisements
Track Severe Weather on mobile